SHASTA DAM (USBR) (SHA)

Elevation: 1067' · SACRAMENTO R basin · Operator: US Bureau of Reclamation

Provisional data, subject to change.
Query executed Friday at 14:55:08   clock

Select a sensor type for a plot of data.
Note: Reservoir Flows are daily averages.

Earlier

Date RES ELE    STORAGE    RES CHG    TOC STO    ABV TOC    OUTFLOW    INFLOW    EVAP    FNF    RIV REL    PPT INC    RAIN    SPILL    DIS PWR   
 FEET   AF   AF   AF   AF   CFS   CFS   CFS   CFS   CFS   INCHES   INCHES   CFS   CFS  
10/02/2014 898.20 1146349 -4528 4509500 -3363151 4601 2422 104 1585 2922 0.00 0.00 0 1679
10/03/2014 897.96 1143492 -2857 4488200 -3344708 4070 2734 104 3231 2988 0.00 0.00 0 1082
10/04/2014 897.63 1139588 -3904 4466900 -3327312 3951 2087 104 2505 2892 0.00 0.00 0 1059
10/05/2014 897.23 1134855 -4733 4445500 -3310645 4319 2030 97 2511 2893 0.00 0.00 0 1426
10/06/2014 897.19 1134382 -473 4424200 -3289818 4623 4492 107 2705 2976 0.00 0.00 0 1647
10/07/2014 897.27 1135328 946 4402900 -3267572 3798 4351 76 2873 2287 0.00 0.00 0 1511
10/08/2014 897.13 1133672 -1656 4381600 -3247928 4420 3647 62 2685 1741 0.00 0.00 0 2679
10/09/2014 897.02 1132371 -1301 4360300 -3227929 3874 3266 48 2652 0 0.00 0.00 0 3874
10/10/2014 896.64 1127905 -4466 4339000 -3211095 4003 1789 38 2162 0 0.00 0.00 0 4003
10/11/2014 896.30 1123912 -3993 4317700 -3193788 3435 1474 52 2628 0 0.00 0.00 0 3435
10/12/2014 896.01 1120505 -3407 4296362 -3175895 3015 1369 72 2416 0 0.00 0.00 0 3015
10/13/2014 895.79 1117940 -2565 4275050 -3157160 3726 2502 69 2402 0 0.00 0.00 0 3726
10/14/2014 895.78 1117823 -117 4253739 -3135877 3496 3509 72 2280 0 0.00 0.00 0 3496
10/15/2014 895.64 1116191 -1632 4232428 -3116237 r 4156 3401 68 3197 0 0.05 0.05 0 4156
10/16/2014 895.68 1116657 466 4211116 -3094460 3178 3475 62 2875 32 0.05 0.10 0 3146
10/17/2014 895.60 1115724 -933 4189805 -- 3618 3182 34 2652 0 0.05 0.15 0 3618
10/18/2014 895.45 1113976 -1748 4168493 -- 3358 2511 34 2738 0 0.00 0.15 0 3358
10/19/2014 895.26 1111760 -2216 4147182 -3035422 3309 2223 31 2289 0 0.00 0.15 0 3309
10/20/2014 895.23 1111411 -349 4125870 -3014459 2894 2749 31 3956 0 0.00 0.15 0 2894
10/21/2014 895.21 1111177 -234 4104559 -2993382 2876 2768 10 2809 0 0.50 0.65 0 2876
10/22/2014 895.03 1109079 -2098 4083248 -2974168 3540 2513 31 2725 0 0.00 0.65 0 3540
10/23/2014 894.76 1105951 -3128 4061936 -2955985 4896 3326 7 3481 0 0.47 1.12 0 4896
10/24/2014 895.08 1109662 3711 4040624 -2930962 2343 4217 3 3403 0 0.59 1.71 0 2343
10/25/2014 895.82 1118289 8627 4019313 -2901024 2453 6847 45 1665 0 0.47 2.18 0 2453
10/26/2014 895.60 1115724 -2565 3998002 -2882278 4158 2872 7 8766 0 2.17 4.35 0 4158
10/27/2014 895.38 1113159 -2565 3976690 -2863531 4106 2851 38 2529 0 0.00 4.35 0 4106
10/28/2014 895.09 1109778 -3381 3955378 -2845600 4414 2747 38 2992 0 0.00 4.35 0 4414
10/29/2014 895.02 1108962 -816 3934067 -2825105 2666 2269 14 2629 0 0.00 4.35 0 2666
10/30/2014 895.12 1110128 1166 3912756 -2802628 2337 2966 41 2903 0 0.00 4.35 0 2337
10/31/2014 -- -- -- -- -- -- -- -- -- -- -- -- -- --

Later | Latest

Warning! This data is preliminary and subject to revision.

Show SHA Map | Plot SHA Data | 1 Month SHA Data | Real-Time SHA Data | SHA Info